sensor_id;sensor_type;location;lat;lon;timestamp;temperature;humidity
64396;DHT22;50717;53.360;6.290;2023-02-28T00:01:23;4.30;99.90
64396;DHT22;50717;53.360;6.290;2023-02-28T00:03:49;4.70;99.90
64396;DHT22;50717;53.360;6.290;2023-02-28T00:06:15;4.20;99.90
64396;DHT22;50717;53.360;6.290;2023-02-28T00:08:41;5.10;99.90
64396;DHT22;50717;53.360;6.290;2023-02-28T00:11:09;5.30;99.90
64396;DHT22;50717;53.360;6.290;2023-02-28T00:13:37;5.30;99.90
64396;DHT22;50717;53.360;6.290;2023-02-28T00:16:09;5.20;99.90
64396;DHT22;50717;53.360;6.290;2023-02-28T00:18:36;4.30;99.90
64396;DHT22;50717;53.360;6.290;2023-02-28T00:21:02;4.40;99.90
64396;DHT22;50717;53.360;6.290;2023-02-28T00:23:28;5.20;99.90
64396;DHT22;50717;53.360;6.290;2023-02-28T00:25:54;4.80;99.90
64396;DHT22;50717;53.360;6.290;2023-02-28T00:28:20;4.40;99.90
64396;DHT22;50717;53.360;6.290;2023-02-28T00:30:46;5.00;99.90
64396;DHT22;50717;53.360;6.290;2023-02-28T00:33:12;4.30;99.90
64396;DHT22;50717;53.360;6.290;2023-02-28T00:35:38;5.30;99.90
64396;DHT22;50717;53.360;6.290;2023-02-28T00:38:03;4.60;99.90
64396;DHT22;50717;53.360;6.290;2023-02-28T00:40:29;4.70;99.90
64396;DHT22;50717;53.360;6.290;2023-02-28T00:42:55;5.10;99.90
64396;DHT22;50717;53.360;6.290;2023-02-28T00:45:21;5.30;99.90
64396;DHT22;50717;53.360;6.290;2023-02-28T00:47:47;5.00;99.90
64396;DHT22;50717;53.360;6.290;2023-02-28T00:50:17;5.20;99.90
64396;DHT22;50717;53.360;6.290;2023-02-28T00:52:43;4.50;99.90
64396;DHT22;50717;53.360;6.290;2023-02-28T00:55:09;5.40;99.90
64396;DHT22;50717;53.360;6.290;2023-02-28T00:57:35;5.40;99.90
64396;DHT22;50717;53.360;6.290;2023-02-28T01:00:01;5.30;99.90
64396;DHT22;50717;53.360;6.290;2023-02-28T01:02:26;4.90;99.90
64396;DHT22;50717;53.360;6.290;2023-02-28T01:04:52;4.50;99.90
64396;DHT22;50717;53.360;6.290;2023-02-28T01:07:18;5.10;99.90
64396;DHT22;50717;53.360;6.290;2023-02-28T01:09:43;5.40;99.90
64396;DHT22;50717;53.360;6.290;2023-02-28T01:12:09;5.30;99.90
64396;DHT22;50717;53.360;6.290;2023-02-28T01:14:36;4.70;99.90
64396;DHT22;50717;53.360;6.290;2023-02-28T01:17:01;5.00;99.90
64396;DHT22;50717;53.360;6.290;2023-02-28T01:19:27;4.60;99.90
64396;DHT22;50717;53.360;6.290;2023-02-28T01:21:53;4.30;99.90
64396;DHT22;50717;53.360;6.290;2023-02-28T01:24:19;5.10;99.90
64396;DHT22;50717;53.360;6.290;2023-02-28T01:26:44;5.30;99.90
64396;DHT22;50717;53.360;6.290;2023-02-28T01:29:10;5.10;99.90
64396;DHT22;50717;53.360;6.290;2023-02-28T01:31:36;4.10;99.90
64396;DHT22;50717;53.360;6.290;2023-02-28T01:34:02;4.40;99.90
64396;DHT22;50717;53.360;6.290;2023-02-28T01:36:28;5.30;99.90
64396;DHT22;50717;53.360;6.290;2023-02-28T01:38:54;4.40;99.90
64396;DHT22;50717;53.360;6.290;2023-02-28T01:41:23;4.60;99.90
64396;DHT22;50717;53.360;6.290;2023-02-28T01:46:16;5.10;99.90
64396;DHT22;50717;53.360;6.290;2023-02-28T01:48:42;5.50;99.90
64396;DHT22;50717;53.360;6.290;2023-02-28T01:51:13;5.40;99.90
64396;DHT22;50717;53.360;6.290;2023-02-28T01:53:47;5.50;99.90
64396;DHT22;50717;53.360;6.290;2023-02-28T01:56:19;5.00;99.90
64396;DHT22;50717;53.360;6.290;2023-02-28T01:58:52;4.80;99.90
64396;DHT22;50717;53.360;6.290;2023-02-28T02:01:19;4.80;99.90
64396;DHT22;50717;53.360;6.290;2023-02-28T02:03:54;4.60;99.90
64396;DHT22;50717;53.360;6.290;2023-02-28T02:06:35;5.60;99.90
64396;DHT22;50717;53.360;6.290;2023-02-28T02:09:03;5.70;99.90
64396;DHT22;50717;53.360;6.290;2023-02-28T02:11:28;5.20;99.90
64396;DHT22;50717;53.360;6.290;2023-02-28T02:14:10;4.70;99.90
64396;DHT22;50717;53.360;6.290;2023-02-28T02:37:57;4.60;99.90
64396;DHT22;50717;53.360;6.290;2023-02-28T02:46:33;4.40;99.90
64396;DHT22;50717;53.360;6.290;2023-02-28T02:49:02;5.70;99.90
64396;DHT22;50717;53.360;6.290;2023-02-28T02:51:30;5.20;99.90
64396;DHT22;50717;53.360;6.290;2023-02-28T02:54:04;5.10;99.90
64396;DHT22;50717;53.360;6.290;2023-02-28T02:56:33;5.50;99.90
64396;DHT22;50717;53.360;6.290;2023-02-28T02:59:06;4.60;99.90
64396;DHT22;50717;53.360;6.290;2023-02-28T03:01:34;4.50;99.90
64396;DHT22;50717;53.360;6.290;2023-02-28T03:04:04;5.50;99.90
64396;DHT22;50717;53.360;6.290;2023-02-28T03:06:31;4.60;99.90
64396;DHT22;50717;53.360;6.290;2023-02-28T03:08:57;4.80;99.90
64396;DHT22;50717;53.360;6.290;2023-02-28T03:11:23;5.40;99.90
64396;DHT22;50717;53.360;6.290;2023-02-28T03:14:33;5.10;99.90
64396;DHT22;50717;53.360;6.290;2023-02-28T03:17:34;5.10;99.90
64396;DHT22;50717;53.360;6.290;2023-02-28T03:23:02;4.20;99.90
64396;DHT22;50717;53.360;6.290;2023-02-28T03:25:41;4.90;99.90
64396;DHT22;50717;53.360;6.290;2023-02-28T03:28:32;4.90;99.90
64396;DHT22;50717;53.360;6.290;2023-02-28T03:31:38;5.40;99.90
64396;DHT22;50717;53.360;6.290;2023-02-28T03:34:19;4.70;99.90
64396;DHT22;50717;53.360;6.290;2023-02-28T03:36:52;5.70;99.90
64396;DHT22;50717;53.360;6.290;2023-02-28T03:39:32;4.50;99.90
64396;DHT22;50717;53.360;6.290;2023-02-28T03:42:02;4.60;99.90
64396;DHT22;50717;53.360;6.290;2023-02-28T03:44:34;4.70;99.90
64396;DHT22;50717;53.360;6.290;2023-02-28T03:47:29;4.50;99.90
64396;DHT22;50717;53.360;6.290;2023-02-28T03:50:01;4.60;99.90
64396;DHT22;50717;53.360;6.290;2023-02-28T03:52:31;5.50;99.90
64396;DHT22;50717;53.360;6.290;2023-02-28T03:55:03;5.50;99.90
64396;DHT22;50717;53.360;6.290;2023-02-28T04:00:04;5.40;99.90
64396;DHT22;50717;53.360;6.290;2023-02-28T04:02:32;5.10;99.90
64396;DHT22;50717;53.360;6.290;2023-02-28T04:04:59;5.20;99.90
64396;DHT22;50717;53.360;6.290;2023-02-28T04:07:25;5.70;99.90
64396;DHT22;50717;53.360;6.290;2023-02-28T04:09:54;5.30;99.90
64396;DHT22;50717;53.360;6.290;2023-02-28T04:12:19;4.80;99.90
64396;DHT22;50717;53.360;6.290;2023-02-28T04:14:46;5.30;99.90
64396;DHT22;50717;53.360;6.290;2023-02-28T04:17:12;4.80;99.90
64396;DHT22;50717;53.360;6.290;2023-02-28T04:19:37;4.80;99.90
64396;DHT22;50717;53.360;6.290;2023-02-28T04:22:03;5.70;99.90
64396;DHT22;50717;53.360;6.290;2023-02-28T04:24:29;5.20;99.90
64396;DHT22;50717;53.360;6.290;2023-02-28T04:26:56;5.40;99.90
64396;DHT22;50717;53.360;6.290;2023-02-28T04:29:25;5.40;99.90
64396;DHT22;50717;53.360;6.290;2023-02-28T04:31:52;4.40;99.90
64396;DHT22;50717;53.360;6.290;2023-02-28T04:34:23;5.60;99.90
64396;DHT22;50717;53.360;6.290;2023-02-28T04:36:49;5.10;99.90
64396;DHT22;50717;53.360;6.290;2023-02-28T04:39:16;5.00;99.90
64396;DHT22;50717;53.360;6.290;2023-02-28T04:41:47;5.30;99.90
64396;DHT22;50717;53.360;6.290;2023-02-28T04:44:13;5.80;99.90
64396;DHT22;50717;53.360;6.290;2023-02-28T04:46:39;5.60;99.90
64396;DHT22;50717;53.360;6.290;2023-02-28T04:49:05;5.50;99.90
64396;DHT22;50717;53.360;6.290;2023-02-28T04:51:30;4.70;99.90
64396;DHT22;50717;53.360;6.290;2023-02-28T04:53:56;5.50;99.90
64396;DHT22;50717;53.360;6.290;2023-02-28T04:56:22;4.70;99.90
64396;DHT22;50717;53.360;6.290;2023-02-28T04:58:48;4.90;99.90
64396;DHT22;50717;53.360;6.290;2023-02-28T05:01:26;5.60;99.90
64396;DHT22;50717;53.360;6.290;2023-02-28T05:03:55;4.80;99.90
64396;DHT22;50717;53.360;6.290;2023-02-28T05:06:22;5.00;99.90
64396;DHT22;50717;53.360;6.290;2023-02-28T05:08:49;5.80;99.90
64396;DHT22;50717;53.360;6.290;2023-02-28T05:11:17;5.60;99.90
64396;DHT22;50717;53.360;6.290;2023-02-28T05:13:43;4.60;99.90
64396;DHT22;50717;53.360;6.290;2023-02-28T05:16:09;5.70;99.90
64396;DHT22;50717;53.360;6.290;2023-02-28T05:18:36;5.60;99.90
64396;DHT22;50717;53.360;6.290;2023-02-28T05:21:02;5.70;99.90
64396;DHT22;50717;53.360;6.290;2023-02-28T05:23:28;5.10;99.90
64396;DHT22;50717;53.360;6.290;2023-02-28T05:25:54;5.80;99.90
64396;DHT22;50717;53.360;6.290;2023-02-28T05:28:20;5.30;99.90
64396;DHT22;50717;53.360;6.290;2023-02-28T05:30:46;4.60;99.90
64396;DHT22;50717;53.360;6.290;2023-02-28T05:33:13;5.80;99.90
64396;DHT22;50717;53.360;6.290;2023-02-28T05:35:42;4.40;99.90
64396;DHT22;50717;53.360;6.290;2023-02-28T05:38:10;4.90;99.90
64396;DHT22;50717;53.360;6.290;2023-02-28T05:40:38;4.60;99.90
64396;DHT22;50717;53.360;6.290;2023-02-28T05:45:31;5.60;99.90
64396;DHT22;50717;53.360;6.290;2023-02-28T05:47:57;5.00;99.90
64396;DHT22;50717;53.360;6.290;2023-02-28T05:50:23;5.20;99.90
64396;DHT22;50717;53.360;6.290;2023-02-28T05:52:52;4.90;99.90
64396;DHT22;50717;53.360;6.290;2023-02-28T05:55:18;5.60;99.90
64396;DHT22;50717;53.360;6.290;2023-02-28T05:57:44;4.70;99.90
64396;DHT22;50717;53.360;6.290;2023-02-28T06:00:10;5.40;99.90
64396;DHT22;50717;53.360;6.290;2023-02-28T06:02:38;4.50;99.90
64396;DHT22;50717;53.360;6.290;2023-02-28T06:05:06;4.50;99.90
64396;DHT22;50717;53.360;6.290;2023-02-28T06:07:32;5.20;99.90
64396;DHT22;50717;53.360;6.290;2023-02-28T06:09:58;5.10;99.90
64396;DHT22;50717;53.360;6.290;2023-02-28T06:12:24;4.20;99.90
64396;DHT22;50717;53.360;6.290;2023-02-28T06:14:50;4.90;99.90
64396;DHT22;50717;53.360;6.290;2023-02-28T06:17:15;4.40;99.90
64396;DHT22;50717;53.360;6.290;2023-02-28T06:19:41;4.50;99.90
64396;DHT22;50717;53.360;6.290;2023-02-28T06:22:07;3.90;99.90
64396;DHT22;50717;53.360;6.290;2023-02-28T06:24:32;4.10;99.90
64396;DHT22;50717;53.360;6.290;2023-02-28T06:26:58;4.50;99.90
64396;DHT22;50717;53.360;6.290;2023-02-28T06:29:31;4.20;99.90
64396;DHT22;50717;53.360;6.290;2023-02-28T06:34:23;3.50;99.90
64396;DHT22;50717;53.360;6.290;2023-02-28T06:36:51;4.10;99.90
64396;DHT22;50717;53.360;6.290;2023-02-28T06:41:43;3.60;99.90
64396;DHT22;50717;53.360;6.290;2023-02-28T06:44:17;4.20;99.90
64396;DHT22;50717;53.360;6.290;2023-02-28T06:46:44;4.30;99.90
64396;DHT22;50717;53.360;6.290;2023-02-28T06:51:39;3.40;99.90
64396;DHT22;50717;53.360;6.290;2023-02-28T06:54:07;3.50;99.90
64396;DHT22;50717;53.360;6.290;2023-02-28T06:59:02;3.80;99.90
64396;DHT22;50717;53.360;6.290;2023-02-28T07:03:54;3.80;99.90
64396;DHT22;50717;53.360;6.290;2023-02-28T07:08:48;3.30;99.90
64396;DHT22;50717;53.360;6.290;2023-02-28T07:18:34;4.20;99.90
64396;DHT22;50717;53.360;6.290;2023-02-28T07:21:12;4.00;99.90
64396;DHT22;50717;53.360;6.290;2023-02-28T07:28:30;3.50;99.90
64396;DHT22;50717;53.360;6.290;2023-02-28T07:30:56;3.80;99.90
64396;DHT22;50717;53.360;6.290;2023-02-28T07:33:22;3.50;99.90
64396;DHT22;50717;53.360;6.290;2023-02-28T07:35:49;3.90;99.90
64396;DHT22;50717;53.360;6.290;2023-02-28T07:38:15;4.00;99.90
64396;DHT22;50717;53.360;6.290;2023-02-28T07:40:40;3.80;99.90
64396;DHT22;50717;53.360;6.290;2023-02-28T07:43:06;4.00;99.90
64396;DHT22;50717;53.360;6.290;2023-02-28T07:45:32;3.20;99.90
64396;DHT22;50717;53.360;6.290;2023-02-28T07:48:00;3.00;99.90
64396;DHT22;50717;53.360;6.290;2023-02-28T07:50:26;3.30;99.90
64396;DHT22;50717;53.360;6.290;2023-02-28T07:52:54;3.70;99.90
64396;DHT22;50717;53.360;6.290;2023-02-28T07:55:20;4.30;99.90
64396;DHT22;50717;53.360;6.290;2023-02-28T07:57:46;3.10;99.90
64396;DHT22;50717;53.360;6.290;2023-02-28T08:00:12;3.40;99.90
64396;DHT22;50717;53.360;6.290;2023-02-28T08:02:40;3.20;99.90
64396;DHT22;50717;53.360;6.290;2023-02-28T08:05:07;3.90;99.90
64396;DHT22;50717;53.360;6.290;2023-02-28T08:07:32;3.80;99.90
64396;DHT22;50717;53.360;6.290;2023-02-28T08:09:59;3.90;99.90
64396;DHT22;50717;53.360;6.290;2023-02-28T08:12:25;4.50;99.90
64396;DHT22;50717;53.360;6.290;2023-02-28T08:17:17;3.50;99.90
64396;DHT22;50717;53.360;6.290;2023-02-28T08:22:12;3.70;99.90
64396;DHT22;50717;53.360;6.290;2023-02-28T08:24:37;3.70;99.90
64396;DHT22;50717;53.360;6.290;2023-02-28T08:27:03;3.70;99.90
64396;DHT22;50717;53.360;6.290;2023-02-28T08:29:29;3.70;99.90
64396;DHT22;50717;53.360;6.290;2023-02-28T08:31:55;3.80;99.90
64396;DHT22;50717;53.360;6.290;2023-02-28T08:34:21;3.70;99.90
64396;DHT22;50717;53.360;6.290;2023-02-28T08:36:47;4.00;99.90
64396;DHT22;50717;53.360;6.290;2023-02-28T08:39:13;3.80;99.90
64396;DHT22;50717;53.360;6.290;2023-02-28T08:41:38;3.90;99.90
64396;DHT22;50717;53.360;6.290;2023-02-28T08:46:30;4.10;99.90
64396;DHT22;50717;53.360;6.290;2023-02-28T08:48:56;3.90;99.90
64396;DHT22;50717;53.360;6.290;2023-02-28T08:53:59;4.30;99.90
64396;DHT22;50717;53.360;6.290;2023-02-28T08:56:26;4.10;99.90
64396;DHT22;50717;53.360;6.290;2023-02-28T08:58:53;4.10;99.90
64396;DHT22;50717;53.360;6.290;2023-02-28T09:01:26;4.70;99.90
64396;DHT22;50717;53.360;6.290;2023-02-28T09:03:53;4.50;99.90
64396;DHT22;50717;53.360;6.290;2023-02-28T09:08:45;4.00;99.90
64396;DHT22;50717;53.360;6.290;2023-02-28T09:11:11;4.00;99.90
64396;DHT22;50717;53.360;6.290;2023-02-28T09:13:38;4.80;99.90
64396;DHT22;50717;53.360;6.290;2023-02-28T09:16:06;4.20;99.90
64396;DHT22;50717;53.360;6.290;2023-02-28T09:18:34;4.10;99.90
64396;DHT22;50717;53.360;6.290;2023-02-28T09:20:59;4.50;99.90
64396;DHT22;50717;53.360;6.290;2023-02-28T09:23:27;4.00;99.90
64396;DHT22;50717;53.360;6.290;2023-02-28T09:25:54;4.90;99.90
64396;DHT22;50717;53.360;6.290;2023-02-28T09:28:21;4.30;99.90
64396;DHT22;50717;53.360;6.290;2023-02-28T09:33:15;3.90;99.90
64396;DHT22;50717;53.360;6.290;2023-02-28T09:35:42;4.30;99.90
64396;DHT22;50717;53.360;6.290;2023-02-28T09:38:09;4.90;99.90
64396;DHT22;50717;53.360;6.290;2023-02-28T09:40:51;5.30;99.90
64396;DHT22;50717;53.360;6.290;2023-02-28T09:43:20;4.50;99.90
64396;DHT22;50717;53.360;6.290;2023-02-28T09:45:52;5.30;99.90
64396;DHT22;50717;53.360;6.290;2023-02-28T09:48:32;5.10;99.90
64396;DHT22;50717;53.360;6.290;2023-02-28T09:51:14;5.20;99.90
64396;DHT22;50717;53.360;6.290;2023-02-28T09:53:42;5.50;99.90
64396;DHT22;50717;53.360;6.290;2023-02-28T09:56:19;5.10;99.90
64396;DHT22;50717;53.360;6.290;2023-02-28T10:02:00;5.60;99.90
64396;DHT22;50717;53.360;6.290;2023-02-28T10:04:56;6.20;99.90
64396;DHT22;50717;53.360;6.290;2023-02-28T10:07:50;5.50;99.90
64396;DHT22;50717;53.360;6.290;2023-02-28T10:10:35;6.00;99.90
64396;DHT22;50717;53.360;6.290;2023-02-28T10:19:09;6.50;99.90
64396;DHT22;50717;53.360;6.290;2023-02-28T10:21:42;6.50;99.90
64396;DHT22;50717;53.360;6.290;2023-02-28T10:27:00;6.50;99.90
64396;DHT22;50717;53.360;6.290;2023-02-28T10:29:28;7.10;99.90
64396;DHT22;50717;53.360;6.290;2023-02-28T10:31:57;6.50;99.90
64396;DHT22;50717;53.360;6.290;2023-02-28T10:34:24;6.80;99.90
64396;DHT22;50717;53.360;6.290;2023-02-28T10:36:50;7.20;99.90
64396;DHT22;50717;53.360;6.290;2023-02-28T10:39:45;7.10;99.90
64396;DHT22;50717;53.360;6.290;2023-02-28T10:42:29;6.90;99.90
64396;DHT22;50717;53.360;6.290;2023-02-28T10:47:38;7.00;99.90
64396;DHT22;50717;53.360;6.290;2023-02-28T10:50:27;7.10;99.90
64396;DHT22;50717;53.360;6.290;2023-02-28T10:52:54;6.90;99.90
64396;DHT22;50717;53.360;6.290;2023-02-28T10:55:25;7.40;99.90
64396;DHT22;50717;53.360;6.290;2023-02-28T10:57:52;7.20;99.90
64396;DHT22;50717;53.360;6.290;2023-02-28T11:00:21;7.60;99.90
64396;DHT22;50717;53.360;6.290;2023-02-28T11:02:47;7.00;99.90
64396;DHT22;50717;53.360;6.290;2023-02-28T11:05:34;7.20;99.90
64396;DHT22;50717;53.360;6.290;2023-02-28T11:10:31;7.20;99.90
64396;DHT22;50717;53.360;6.290;2023-02-28T11:13:00;7.30;99.90
64396;DHT22;50717;53.360;6.290;2023-02-28T11:15:32;7.60;99.90
64396;DHT22;50717;53.360;6.290;2023-02-28T11:18:15;7.30;99.90
64396;DHT22;50717;53.360;6.290;2023-02-28T11:20:48;7.80;99.90
64396;DHT22;50717;53.360;6.290;2023-02-28T11:23:16;7.60;99.90
64396;DHT22;50717;53.360;6.290;2023-02-28T11:25:48;7.40;99.90
64396;DHT22;50717;53.360;6.290;2023-02-28T11:28:33;8.00;99.90
64396;DHT22;50717;53.360;6.290;2023-02-28T11:31:19;7.90;99.90
64396;DHT22;50717;53.360;6.290;2023-02-28T11:33:53;7.40;99.90
64396;DHT22;50717;53.360;6.290;2023-02-28T11:36:27;7.40;99.90
64396;DHT22;50717;53.360;6.290;2023-02-28T11:38:56;8.10;99.90
64396;DHT22;50717;53.360;6.290;2023-02-28T11:44:22;8.20;99.90
64396;DHT22;50717;53.360;6.290;2023-02-28T11:46:57;7.90;99.90
64396;DHT22;50717;53.360;6.290;2023-02-28T12:11:52;8.20;99.90
64396;DHT22;50717;53.360;6.290;2023-02-28T12:14:50;8.00;99.90
64396;DHT22;50717;53.360;6.290;2023-02-28T12:27:52;7.70;99.90
64396;DHT22;50717;53.360;6.290;2023-02-28T12:30:35;7.80;99.90
64396;DHT22;50717;53.360;6.290;2023-02-28T12:33:09;8.30;99.90
64396;DHT22;50717;53.360;6.290;2023-02-28T12:35:41;8.00;99.90
64396;DHT22;50717;53.360;6.290;2023-02-28T12:38:19;8.30;99.90
64396;DHT22;50717;53.360;6.290;2023-02-28T12:41:03;7.90;99.90
64396;DHT22;50717;53.360;6.290;2023-02-28T12:43:40;8.20;99.90
64396;DHT22;50717;53.360;6.290;2023-02-28T12:46:14;7.90;99.90
64396;DHT22;50717;53.360;6.290;2023-02-28T12:48:44;7.80;99.90
64396;DHT22;50717;53.360;6.290;2023-02-28T12:51:12;8.10;99.90
64396;DHT22;50717;53.360;6.290;2023-02-28T12:54:10;8.10;99.90
64396;DHT22;50717;53.360;6.290;2023-02-28T13:10:40;10.10;99.90
64396;DHT22;50717;53.360;6.290;2023-02-28T13:13:14;10.10;99.90
64396;DHT22;50717;53.360;6.290;2023-02-28T13:15:40;10.10;99.90
64396;DHT22;50717;53.360;6.290;2023-02-28T13:18:29;10.00;99.90
64396;DHT22;50717;53.360;6.290;2023-02-28T13:20:55;9.90;99.90
64396;DHT22;50717;53.360;6.290;2023-02-28T13:26:07;10.30;99.90
64396;DHT22;50717;53.360;6.290;2023-02-28T13:31:18;10.80;99.90
64396;DHT22;50717;53.360;6.290;2023-02-28T13:38:49;11.60;99.90
64396;DHT22;50717;53.360;6.290;2023-02-28T13:44:10;11.60;99.90
64396;DHT22;50717;53.360;6.290;2023-02-28T13:54:56;10.40;99.90
64396;DHT22;50717;53.360;6.290;2023-02-28T14:05:36;8.90;99.90
64396;DHT22;50717;53.360;6.290;2023-02-28T14:08:16;8.60;99.90
64396;DHT22;50717;53.360;6.290;2023-02-28T14:10:51;8.50;99.90
64396;DHT22;50717;53.360;6.290;2023-02-28T14:16:00;8.50;99.90
64396;DHT22;50717;53.360;6.290;2023-02-28T14:18:32;8.20;99.90
64396;DHT22;50717;53.360;6.290;2023-02-28T14:21:16;8.50;99.90
64396;DHT22;50717;53.360;6.290;2023-02-28T14:37:30;10.40;99.90
64396;DHT22;50717;53.360;6.290;2023-02-28T14:39:59;10.80;99.90
64396;DHT22;50717;53.360;6.290;2023-02-28T14:42:35;10.90;99.90
64396;DHT22;50717;53.360;6.290;2023-02-28T14:45:04;11.10;99.90
64396;DHT22;50717;53.360;6.290;2023-02-28T14:47:35;11.50;99.90
64396;DHT22;50717;53.360;6.290;2023-02-28T14:50:02;11.10;99.90
64396;DHT22;50717;53.360;6.290;2023-02-28T14:52:32;10.50;99.90
64396;DHT22;50717;53.360;6.290;2023-02-28T14:55:10;9.80;99.90
64396;DHT22;50717;53.360;6.290;2023-02-28T14:57:41;9.80;99.90
64396;DHT22;50717;53.360;6.290;2023-02-28T15:00:29;9.20;99.90
64396;DHT22;50717;53.360;6.290;2023-02-28T15:02:56;8.40;99.90
64396;DHT22;50717;53.360;6.290;2023-02-28T15:08:13;8.40;99.90
64396;DHT22;50717;53.360;6.290;2023-02-28T15:10:53;8.30;99.90
64396;DHT22;50717;53.360;6.290;2023-02-28T15:13:20;8.10;99.90
64396;DHT22;50717;53.360;6.290;2023-02-28T15:15:57;8.00;99.90
64396;DHT22;50717;53.360;6.290;2023-02-28T15:18:41;8.30;99.90
64396;DHT22;50717;53.360;6.290;2023-02-28T15:21:29;8.10;99.90
64396;DHT22;50717;53.360;6.290;2023-02-28T15:24:10;7.90;99.90
64396;DHT22;50717;53.360;6.290;2023-02-28T15:26:42;7.90;99.90
64396;DHT22;50717;53.360;6.290;2023-02-28T15:29:14;7.60;99.90
64396;DHT22;50717;53.360;6.290;2023-02-28T15:31:46;7.80;99.90
64396;DHT22;50717;53.360;6.290;2023-02-28T15:34:40;7.40;99.90
64396;DHT22;50717;53.360;6.290;2023-02-28T15:40:22;7.70;99.90
64396;DHT22;50717;53.360;6.290;2023-02-28T15:43:05;7.60;99.90
64396;DHT22;50717;53.360;6.290;2023-02-28T15:48:05;7.20;99.90
64396;DHT22;50717;53.360;6.290;2023-02-28T15:50:31;7.30;99.90
64396;DHT22;50717;53.360;6.290;2023-02-28T15:52:57;7.50;99.90
64396;DHT22;50717;53.360;6.290;2023-02-28T15:55:27;7.00;99.90
64396;DHT22;50717;53.360;6.290;2023-02-28T15:57:56;8.00;99.90
64396;DHT22;50717;53.360;6.290;2023-02-28T16:00:26;6.80;99.90
64396;DHT22;50717;53.360;6.290;2023-02-28T16:02:52;7.10;99.90
64396;DHT22;50717;53.360;6.290;2023-02-28T16:07:46;6.90;99.90
64396;DHT22;50717;53.360;6.290;2023-02-28T16:10:14;7.10;99.90
64396;DHT22;50717;53.360;6.290;2023-02-28T16:12:40;6.80;99.90
64396;DHT22;50717;53.360;6.290;2023-02-28T16:15:20;6.70;99.90
64396;DHT22;50717;53.360;6.290;2023-02-28T16:17:47;6.80;99.90
64396;DHT22;50717;53.360;6.290;2023-02-28T16:20:15;7.10;99.90
64396;DHT22;50717;53.360;6.290;2023-02-28T16:22:42;6.70;99.90
64396;DHT22;50717;53.360;6.290;2023-02-28T16:25:11;6.50;99.90
64396;DHT22;50717;53.360;6.290;2023-02-28T16:27:37;6.50;99.90
64396;DHT22;50717;53.360;6.290;2023-02-28T16:30:06;6.40;99.90
64396;DHT22;50717;53.360;6.290;2023-02-28T16:32:34;6.40;99.90
64396;DHT22;50717;53.360;6.290;2023-02-28T16:35:00;6.60;99.90
64396;DHT22;50717;53.360;6.290;2023-02-28T16:37:27;6.20;99.90
64396;DHT22;50717;53.360;6.290;2023-02-28T16:39:53;6.20;99.90
64396;DHT22;50717;53.360;6.290;2023-02-28T16:42:25;6.00;99.90
64396;DHT22;50717;53.360;6.290;2023-02-28T16:44:52;6.30;99.90
64396;DHT22;50717;53.360;6.290;2023-02-28T16:47:18;6.50;99.90
64396;DHT22;50717;53.360;6.290;2023-02-28T16:49:44;6.20;99.90
64396;DHT22;50717;53.360;6.290;2023-02-28T16:52:10;6.00;99.90
64396;DHT22;50717;53.360;6.290;2023-02-28T16:54:38;6.30;99.90
64396;DHT22;50717;53.360;6.290;2023-02-28T16:57:05;6.30;99.90
64396;DHT22;50717;53.360;6.290;2023-02-28T16:59:31;6.00;99.90
64396;DHT22;50717;53.360;6.290;2023-02-28T17:01:57;5.70;99.90
64396;DHT22;50717;53.360;6.290;2023-02-28T17:04:27;6.00;99.90
64396;DHT22;50717;53.360;6.290;2023-02-28T17:06:53;5.80;99.90
64396;DHT22;50717;53.360;6.290;2023-02-28T17:09:21;5.40;99.90
64396;DHT22;50717;53.360;6.290;2023-02-28T17:11:47;5.50;99.90
64396;DHT22;50717;53.360;6.290;2023-02-28T17:14:14;5.50;99.90
64396;DHT22;50717;53.360;6.290;2023-02-28T17:16:40;6.30;99.90
64396;DHT22;50717;53.360;6.290;2023-02-28T17:19:12;5.60;99.90
64396;DHT22;50717;53.360;6.290;2023-02-28T17:21:38;5.80;99.90
64396;DHT22;50717;53.360;6.290;2023-02-28T17:24:04;5.20;99.90
64396;DHT22;50717;53.360;6.290;2023-02-28T17:26:30;5.20;99.90
64396;DHT22;50717;53.360;6.290;2023-02-28T17:28:57;5.50;99.90
64396;DHT22;50717;53.360;6.290;2023-02-28T17:31:26;4.80;99.90
64396;DHT22;50717;53.360;6.290;2023-02-28T17:33:53;4.70;99.90
64396;DHT22;50717;53.360;6.290;2023-02-28T17:36:25;4.40;99.90
64396;DHT22;50717;53.360;6.290;2023-02-28T17:38:53;4.60;99.90
64396;DHT22;50717;53.360;6.290;2023-02-28T17:41:20;4.60;99.90
64396;DHT22;50717;53.360;6.290;2023-02-28T17:43:46;4.60;99.90
64396;DHT22;50717;53.360;6.290;2023-02-28T17:46:21;4.40;99.90
64396;DHT22;50717;53.360;6.290;2023-02-28T17:48:48;4.50;99.90
64396;DHT22;50717;53.360;6.290;2023-02-28T17:51:15;4.40;99.90
64396;DHT22;50717;53.360;6.290;2023-02-28T17:53:41;4.70;99.90
64396;DHT22;50717;53.360;6.290;2023-02-28T17:56:15;3.90;99.90
64396;DHT22;50717;53.360;6.290;2023-02-28T17:58:41;3.80;99.90
64396;DHT22;50717;53.360;6.290;2023-02-28T18:01:07;4.10;99.90
64396;DHT22;50717;53.360;6.290;2023-02-28T18:03:33;4.10;99.90
64396;DHT22;50717;53.360;6.290;2023-02-28T18:05:59;4.30;99.90
64396;DHT22;50717;53.360;6.290;2023-02-28T18:08:25;3.70;99.90
64396;DHT22;50717;53.360;6.290;2023-02-28T18:10:51;3.70;99.90
64396;DHT22;50717;53.360;6.290;2023-02-28T18:13:17;4.10;99.90
64396;DHT22;50717;53.360;6.290;2023-02-28T18:15:43;3.60;99.90
64396;DHT22;50717;53.360;6.290;2023-02-28T18:18:09;3.90;99.90
64396;DHT22;50717;53.360;6.290;2023-02-28T18:20:35;3.90;99.90
64396;DHT22;50717;53.360;6.290;2023-02-28T18:23:01;3.20;99.90
64396;DHT22;50717;53.360;6.290;2023-02-28T18:25:27;3.40;99.90
64396;DHT22;50717;53.360;6.290;2023-02-28T18:27:52;3.80;99.90
64396;DHT22;50717;53.360;6.290;2023-02-28T18:30:21;3.20;99.90
64396;DHT22;50717;53.360;6.290;2023-02-28T18:32:47;3.90;99.90
64396;DHT22;50717;53.360;6.290;2023-02-28T18:35:13;3.20;99.90
64396;DHT22;50717;53.360;6.290;2023-02-28T18:37:38;3.20;99.90
64396;DHT22;50717;53.360;6.290;2023-02-28T18:40:05;3.40;99.90
64396;DHT22;50717;53.360;6.290;2023-02-28T18:42:31;3.30;99.90
64396;DHT22;50717;53.360;6.290;2023-02-28T18:44:56;3.60;99.90
64396;DHT22;50717;53.360;6.290;2023-02-28T18:47:22;3.30;99.90
64396;DHT22;50717;53.360;6.290;2023-02-28T18:49:48;3.10;99.90
64396;DHT22;50717;53.360;6.290;2023-02-28T18:52:13;3.50;99.90
64396;DHT22;50717;53.360;6.290;2023-02-28T18:54:39;3.80;99.90
64396;DHT22;50717;53.360;6.290;2023-02-28T18:57:05;2.90;99.90
64396;DHT22;50717;53.360;6.290;2023-02-28T18:59:30;3.60;99.90
64396;DHT22;50717;53.360;6.290;2023-02-28T19:01:56;3.30;99.90
64396;DHT22;50717;53.360;6.290;2023-02-28T19:04:23;3.40;99.90
64396;DHT22;50717;53.360;6.290;2023-02-28T19:06:48;2.70;99.90
64396;DHT22;50717;53.360;6.290;2023-02-28T19:09:14;2.70;99.90
64396;DHT22;50717;53.360;6.290;2023-02-28T19:11:40;2.80;99.90
64396;DHT22;50717;53.360;6.290;2023-02-28T19:14:06;3.40;99.90
64396;DHT22;50717;53.360;6.290;2023-02-28T19:16:34;3.00;99.90
64396;DHT22;50717;53.360;6.290;2023-02-28T19:21:25;2.50;99.90
64396;DHT22;50717;53.360;6.290;2023-02-28T19:23:52;2.80;99.90
64396;DHT22;50717;53.360;6.290;2023-02-28T19:26:22;2.50;99.90